MMGM/GYM METAR and TAF weather

Enter ICAO airport designator
Station Type Date Time Source
MMGM METAR 2021/07/30 22:40 UTC NOAA

MMGM 302240Z 20010KT 10SM FEW200 34/23 A2982 RMK 8/001


Station Type Date Time Source
MMGM Decoded METAR 2021/07/30 22:40 UTC NOAA

Guaymas International Airport, Mexico (MMGM) 27-58N 110-56W
Jul 30, 2021 - 06:40 PM EDT / 2021.07.30 2240 UTC
Wind: from the SSW (200 degrees) at 12 MPH (10 KT):0
Visibility: 10 mile(s):0
Sky conditions: mostly clear
Temperature: 93 F (34 C)
Heat index: 101.8 F (38.8 C):1
Dew Point: 73 F (23 C)
Relative Humidity: 52%
Pressure (altimeter): 29.82 in. Hg (1009 hPa)
ob: MMGM 302240Z 20010KT 10SM FEW200 34/23 A2982 RMK 8/001
cycle: 22

Station Type Date Time Source
MMGM TAF 2021/07/30 18:06 UTC NOAA

TAF MMGM 301703Z 3018/3118 22006KT P6SM SCT080
BECMG 3020/3021 22015KT BKN080
FM310200 00000KT P6SM SCT080
BECMG 3117/3118 22006KT

Example: see airport list